createdAt,value
2023-09-29T00:01:40.256Z,49709.06
2023-09-29T00:04:07.586Z,49675.19
2023-09-29T00:06:34.760Z,49703.09
2023-09-29T00:09:02.340Z,49703.09
2023-09-29T00:11:32.858Z,49695.09
2023-09-29T00:14:00.133Z,49719.03
2023-09-29T00:16:27.135Z,49681.16
2023-09-29T00:18:54.360Z,49742.94
2023-09-29T00:21:21.332Z,49687.13
2023-09-29T00:23:48.313Z,49675.19
2023-09-29T00:26:15.282Z,49725.00
2023-09-29T00:28:45.608Z,49695.09
2023-09-29T00:31:12.449Z,49687.13
2023-09-29T00:33:39.332Z,49701.09
2023-09-29T00:36:06.296Z,49715.03
2023-09-29T00:38:34.925Z,49715.03
2023-09-29T00:41:02.786Z,49691.13
2023-09-29T00:43:29.735Z,49715.03
2023-09-29T00:45:57.138Z,49675.19
2023-09-29T00:48:24.253Z,49723.03
2023-09-29T00:50:51.569Z,49707.06
2023-09-29T00:53:19.691Z,49713.06
2023-09-29T00:55:47.420Z,49675.19
2023-09-29T00:58:15.698Z,49691.13
2023-09-29T01:00:46.492Z,49731.00
2023-09-29T01:03:16.664Z,49721.03
2023-09-29T01:05:48.860Z,49683.16
2023-09-29T01:08:25.324Z,49683.16
2023-09-29T01:10:54.062Z,49705.06
2023-09-29T01:13:22.469Z,49691.13
2023-09-29T01:15:50.428Z,49695.09
2023-09-29T01:18:17.900Z,49719.03
2023-09-29T01:20:45.386Z,49734.97
2023-09-29T01:23:12.468Z,49697.09
2023-09-29T01:25:39.914Z,49711.06
2023-09-29T01:28:14.786Z,49687.13
2023-09-29T01:30:46.256Z,49697.09
2023-09-29T01:33:13.732Z,49685.13
2023-09-29T01:35:41.046Z,49687.13
2023-09-29T01:38:07.936Z,49683.16
2023-09-29T01:40:34.745Z,49717.03
2023-09-29T01:43:01.594Z,49703.09
2023-09-29T01:45:28.887Z,49673.19
2023-09-29T01:47:56.682Z,49707.06
2023-09-29T01:50:24.604Z,49691.13
2023-09-29T01:52:52.208Z,49729.00
2023-09-29T01:55:25.640Z,49734.97
2023-09-29T01:57:56.090Z,49699.09
2023-09-29T02:00:27.020Z,49683.16
2023-09-29T02:02:55.821Z,49711.06
2023-09-29T02:05:23.163Z,49707.06
2023-09-29T02:07:50.578Z,49695.09
2023-09-29T02:10:22.418Z,49659.22
2023-09-29T02:12:58.469Z,49689.13
2023-09-29T02:15:26.380Z,49659.22
2023-09-29T02:17:53.843Z,49707.06
2023-09-29T02:20:30.691Z,49697.09
2023-09-29T02:22:59.581Z,49695.09
2023-09-29T02:25:27.068Z,49693.13
2023-09-29T02:27:58.435Z,49687.13
2023-09-29T02:30:26.891Z,49693.13
2023-09-29T02:32:53.952Z,49695.09
2023-09-29T02:35:21.700Z,49679.16
2023-09-29T02:37:49.242Z,49701.09
2023-09-29T02:40:16.362Z,49709.06
2023-09-29T02:42:47.636Z,49681.16
2023-09-29T02:45:15.473Z,49695.09
2023-09-29T02:47:48.526Z,49713.06
2023-09-29T02:50:15.952Z,49689.13
2023-09-29T02:52:43.355Z,49703.09
2023-09-29T02:55:16.195Z,49691.13
2023-09-29T02:57:44.730Z,49687.13
2023-09-29T03:00:28.273Z,49703.09
2023-09-29T03:02:55.543Z,49693.13
2023-09-29T03:05:23.566Z,49703.09
2023-09-29T03:07:53.037Z,49679.16
2023-09-29T03:10:24.479Z,49695.09
2023-09-29T03:12:51.406Z,49693.13
2023-09-29T03:15:18.693Z,49655.25
2023-09-29T03:17:47.955Z,49683.16
2023-09-29T03:20:15.925Z,49699.09
2023-09-29T03:22:47.005Z,49693.13
2023-09-29T03:25:18.319Z,49697.09
2023-09-29T03:27:46.305Z,49695.09
2023-09-29T03:30:13.879Z,49699.09
2023-09-29T03:32:40.648Z,49693.13
2023-09-29T03:35:10.030Z,49691.13
2023-09-29T03:37:40.913Z,49689.13
2023-09-29T03:40:10.166Z,49693.13
2023-09-29T03:42:39.234Z,49723.03
2023-09-29T03:45:07.279Z,49703.09
2023-09-29T03:47:35.012Z,49663.22
2023-09-29T03:50:02.960Z,49697.09
2023-09-29T03:52:33.249Z,49715.03
2023-09-29T03:55:00.390Z,49697.09
2023-09-29T03:57:27.089Z,49685.13
2023-09-29T03:59:53.869Z,49687.13
2023-09-29T04:02:21.827Z,49711.06
2023-09-29T04:04:48.820Z,49734.97
2023-09-29T04:07:16.862Z,49679.16
2023-09-29T04:09:43.741Z,49671.19
2023-09-29T04:12:10.570Z,49687.13
2023-09-29T04:14:37.315Z,49707.06
2023-09-29T04:17:05.869Z,49697.09
2023-09-29T04:19:33.580Z,49681.16
2023-09-29T04:22:01.152Z,49679.16
2023-09-29T04:24:28.408Z,49683.16
2023-09-29T04:26:55.167Z,49679.16
2023-09-29T04:29:22.067Z,49691.13
2023-09-29T04:31:48.853Z,49693.13
2023-09-29T04:34:15.601Z,49679.16
2023-09-29T04:36:43.697Z,49729.00
2023-09-29T04:39:10.800Z,49715.03
2023-09-29T04:41:38.873Z,49715.03
2023-09-29T04:44:06.658Z,49711.06
2023-09-29T04:46:35.380Z,49729.00
2023-09-29T04:49:05.004Z,49707.06
2023-09-29T04:51:33.922Z,49703.09
2023-09-29T04:54:01.437Z,49693.13
2023-09-29T04:56:28.245Z,49691.13
2023-09-29T04:58:55.489Z,49681.16
2023-09-29T05:01:25.026Z,49695.09
2023-09-29T05:03:54.451Z,49693.13
2023-09-29T05:06:25.044Z,49667.19
2023-09-29T05:08:52.754Z,49681.16
2023-09-29T05:11:24.398Z,49713.06
2023-09-29T05:13:52.150Z,49687.13
2023-09-29T05:16:18.946Z,49703.09
2023-09-29T05:18:46.461Z,49695.09
2023-09-29T05:21:13.417Z,49691.13
2023-09-29T05:23:40.503Z,49723.03
2023-09-29T05:26:08.863Z,49742.94
2023-09-29T05:28:41.243Z,49681.16
2023-09-29T05:31:08.099Z,49689.13
2023-09-29T05:33:35.591Z,49707.06
2023-09-29T05:36:02.946Z,49691.13
2023-09-29T05:38:30.093Z,49695.09
2023-09-29T05:40:57.048Z,49699.09
2023-09-29T05:43:23.814Z,49655.25
2023-09-29T05:45:50.561Z,49719.03
2023-09-29T05:48:17.617Z,49707.06
2023-09-29T05:50:44.483Z,49717.03
2023-09-29T05:53:12.468Z,49719.03
2023-09-29T05:55:39.702Z,49691.13
2023-09-29T05:58:06.883Z,49711.06
2023-09-29T06:00:34.313Z,49683.16
2023-09-29T06:03:01.512Z,49703.09
2023-09-29T06:05:28.602Z,49687.13
2023-09-29T06:07:58.060Z,49699.09
2023-09-29T06:10:26.166Z,49697.09
2023-09-29T06:12:53.038Z,49703.09
2023-09-29T06:15:20.229Z,49671.19
2023-09-29T06:17:47.113Z,49687.13
2023-09-29T06:20:14.019Z,49703.09
2023-09-29T06:22:40.809Z,49659.22
2023-09-29T06:25:07.912Z,49707.06
2023-09-29T06:27:34.627Z,49701.09
2023-09-29T06:30:01.389Z,49677.16
2023-09-29T06:32:28.315Z,49699.09
2023-09-29T06:34:55.033Z,49687.13
2023-09-29T06:37:21.730Z,49673.19
2023-09-29T06:39:48.522Z,49693.13
2023-09-29T06:42:15.240Z,49691.13
2023-09-29T06:44:41.929Z,49691.13
2023-09-29T06:47:08.761Z,49665.22
2023-09-29T06:49:35.448Z,49681.16
2023-09-29T06:52:02.346Z,49693.13
2023-09-29T06:54:29.346Z,49695.09
2023-09-29T06:56:56.135Z,49693.13
2023-09-29T06:59:22.934Z,49667.19
2023-09-29T07:01:49.681Z,49669.19
2023-09-29T07:04:16.710Z,49681.16
2023-09-29T07:06:43.673Z,49675.19
2023-09-29T07:09:11.105Z,49667.19
2023-09-29T07:11:41.369Z,49687.13
2023-09-29T07:14:08.272Z,49693.13
2023-09-29T07:16:35.050Z,49691.13
2023-09-29T07:19:02.682Z,49671.19
2023-09-29T07:21:29.450Z,49687.13
2023-09-29T07:23:57.947Z,49677.16
2023-09-29T07:26:24.930Z,49655.25
2023-09-29T07:28:51.684Z,49691.13
2023-09-29T07:31:18.493Z,49683.16
2023-09-29T07:33:45.417Z,49673.19
2023-09-29T07:36:12.362Z,49697.09
2023-09-29T07:38:39.168Z,49675.19
2023-09-29T07:41:06.422Z,49673.19
2023-09-29T07:43:33.254Z,49703.09
2023-09-29T07:46:00.066Z,49649.25
2023-09-29T07:48:28.454Z,49669.19
2023-09-29T07:50:55.317Z,49695.09
2023-09-29T07:53:22.120Z,49671.19
2023-09-29T07:55:48.807Z,49689.13
2023-09-29T07:58:15.555Z,49695.09
2023-09-29T08:00:43.209Z,49683.16
2023-09-29T08:03:10.340Z,49683.16
2023-09-29T08:05:37.186Z,49651.25
2023-09-29T08:08:04.485Z,49667.19
2023-09-29T08:10:31.360Z,49677.16
2023-09-29T08:12:58.051Z,49677.16
2023-09-29T08:15:25.821Z,49707.06
2023-09-29T08:17:52.902Z,49677.16
2023-09-29T08:20:21.580Z,49717.03
2023-09-29T08:22:51.035Z,49651.25
2023-09-29T08:25:20.721Z,49689.13
2023-09-29T08:27:47.976Z,49709.06
2023-09-29T08:30:15.044Z,49653.25
2023-09-29T08:32:44.725Z,49707.06
2023-09-29T08:35:15.723Z,49655.25
2023-09-29T08:37:43.866Z,49661.22
2023-09-29T08:40:13.614Z,49687.13
2023-09-29T08:42:42.750Z,49645.28
2023-09-29T08:45:11.563Z,49679.16
2023-09-29T08:47:39.675Z,49655.25
2023-09-29T08:50:11.128Z,49695.09
2023-09-29T08:52:41.843Z,49683.16
2023-09-29T08:55:09.066Z,49683.16
2023-09-29T08:57:35.990Z,49659.22
2023-09-29T09:00:04.497Z,49631.31
2023-09-29T09:02:31.450Z,49661.22
2023-09-29T09:04:58.516Z,49671.19
2023-09-29T09:07:25.226Z,49687.13
2023-09-29T09:09:54.999Z,49665.22
2023-09-29T09:12:35.581Z,49671.19
2023-09-29T09:15:06.939Z,49669.19
2023-09-29T09:17:36.320Z,49687.13
2023-09-29T09:20:03.150Z,49651.25
2023-09-29T09:22:43.626Z,49667.19
2023-09-29T09:25:13.861Z,49663.22
2023-09-29T09:27:41.453Z,49657.22
2023-09-29T09:30:21.921Z,49687.13
2023-09-29T09:32:48.748Z,49657.22
2023-09-29T09:35:30.152Z,49691.13
2023-09-29T09:38:00.337Z,49669.19
2023-09-29T09:40:27.619Z,49667.19
2023-09-29T09:42:55.236Z,49679.16
2023-09-29T09:45:30.662Z,49675.19
2023-09-29T09:47:59.419Z,49691.13
2023-09-29T09:50:31.847Z,49663.22
2023-09-29T09:53:00.979Z,49675.19
2023-09-29T09:55:42.644Z,49659.22
2023-09-29T09:58:13.410Z,49683.16
2023-09-29T10:00:45.549Z,49671.19
2023-09-29T10:03:15.870Z,49685.13
2023-09-29T10:05:50.524Z,49703.09
2023-09-29T10:08:25.781Z,49653.25
2023-09-29T10:10:52.584Z,49663.22
2023-09-29T10:13:19.260Z,49655.25
2023-09-29T10:15:56.379Z,49663.22
2023-09-29T10:18:23.781Z,49701.09
2023-09-29T10:21:02.222Z,49687.13
2023-09-29T10:23:29.080Z,49677.16
2023-09-29T10:26:00.939Z,49663.22
2023-09-29T10:28:46.731Z,49691.13
2023-09-29T10:31:16.224Z,49651.25
2023-09-29T10:33:48.809Z,49701.09
2023-09-29T10:36:16.160Z,49711.06
2023-09-29T10:38:44.407Z,49677.16
2023-09-29T10:41:27.208Z,49695.09
2023-09-29T10:44:01.920Z,49661.22
2023-09-29T10:46:30.209Z,49683.16
2023-09-29T10:48:57.289Z,49677.16
2023-09-29T10:51:25.795Z,49685.13
2023-09-29T10:53:53.855Z,49675.19
2023-09-29T10:56:22.711Z,49687.13
2023-09-29T10:58:54.520Z,49661.22
2023-09-29T11:01:26.522Z,49675.19
2023-09-29T11:03:53.594Z,49711.06
2023-09-29T11:06:21.665Z,49711.06
2023-09-29T11:08:57.088Z,49649.25
2023-09-29T11:11:27.386Z,49643.28
2023-09-29T11:13:58.405Z,49711.06
2023-09-29T11:16:28.392Z,49701.09
2023-09-29T11:18:57.976Z,49707.06
2023-09-29T11:21:38.315Z,49731.00
2023-09-29T11:24:12.005Z,49673.19
2023-09-29T11:26:43.792Z,49687.13
2023-09-29T11:29:23.507Z,49683.16
2023-09-29T11:31:57.099Z,49671.19
2023-09-29T11:34:24.465Z,49675.19
2023-09-29T11:36:52.072Z,49683.16
2023-09-29T11:39:23.799Z,49675.19
2023-09-29T11:41:51.927Z,49651.25
2023-09-29T11:44:18.725Z,49655.25
2023-09-29T11:46:45.967Z,49711.06
2023-09-29T11:49:13.266Z,49697.09
2023-09-29T11:51:40.296Z,49667.19
2023-09-29T11:54:07.600Z,49683.16
2023-09-29T11:56:35.272Z,49701.09
2023-09-29T11:59:02.102Z,49681.16
2023-09-29T12:01:29.157Z,49703.09
2023-09-29T12:03:57.064Z,49685.13
2023-09-29T12:06:24.192Z,49687.13
2023-09-29T12:08:51.050Z,49691.13
2023-09-29T12:11:20.774Z,49705.06
2023-09-29T12:13:49.176Z,49703.09
2023-09-29T12:16:16.583Z,49651.25
2023-09-29T12:18:43.589Z,49707.06
2023-09-29T12:21:12.342Z,49723.03
2023-09-29T12:23:40.000Z,49705.06
2023-09-29T12:26:07.703Z,49683.16
2023-09-29T12:28:36.671Z,49685.13
2023-09-29T12:31:04.085Z,49715.03
2023-09-29T12:33:31.337Z,49667.19
2023-09-29T12:35:58.205Z,49715.03
2023-09-29T12:38:24.895Z,49727.00
2023-09-29T12:40:51.929Z,49679.16
2023-09-29T12:43:18.618Z,49727.00
2023-09-29T12:45:45.534Z,49711.06
2023-09-29T12:48:12.522Z,49689.13
2023-09-29T12:50:40.793Z,49715.03
2023-09-29T12:53:07.952Z,49691.13
2023-09-29T12:55:34.707Z,49715.03
2023-09-29T12:58:08.131Z,49709.06
2023-09-29T13:00:35.687Z,49703.09
2023-09-29T13:03:07.059Z,49729.00
2023-09-29T13:05:37.503Z,49734.97
2023-09-29T13:08:05.727Z,49744.94
2023-09-29T13:10:36.306Z,49719.03
2023-09-29T13:13:04.847Z,49742.94
2023-09-29T13:15:32.626Z,49693.13
2023-09-29T13:17:59.824Z,49725.00
2023-09-29T13:20:26.627Z,49731.00
2023-09-29T13:22:53.472Z,49723.03
2023-09-29T13:25:20.221Z,49723.03
2023-09-29T13:27:46.997Z,49703.09
2023-09-29T13:30:15.076Z,49691.13
2023-09-29T13:32:41.975Z,49725.00
2023-09-29T13:35:09.632Z,49671.19
2023-09-29T13:37:37.686Z,49705.06
2023-09-29T13:40:07.259Z,49687.13
2023-09-29T13:42:36.580Z,49701.09
2023-09-29T13:45:04.809Z,49673.19
2023-09-29T13:47:32.509Z,49695.09
2023-09-29T13:50:00.806Z,49679.16
2023-09-29T13:52:28.369Z,49659.22
2023-09-29T13:54:55.125Z,49679.16
2023-09-29T13:57:22.953Z,49661.22
2023-09-29T13:59:49.852Z,49711.06
2023-09-29T14:02:17.075Z,49709.06
2023-09-29T14:04:45.137Z,49727.00
2023-09-29T14:07:12.347Z,49695.09
2023-09-29T14:09:39.811Z,49709.06
2023-09-29T14:12:08.951Z,49709.06
2023-09-29T14:14:36.135Z,49683.16
2023-09-29T14:17:03.658Z,49639.28
2023-09-29T14:19:30.401Z,49703.09
2023-09-29T14:21:57.438Z,49703.09
2023-09-29T14:24:24.262Z,49665.22
2023-09-29T14:26:51.122Z,49677.16
2023-09-29T14:29:18.778Z,49699.09
2023-09-29T14:31:46.213Z,49679.16
2023-09-29T14:34:17.157Z,49719.03
2023-09-29T14:36:44.337Z,49709.06
2023-09-29T14:39:11.192Z,49715.03
2023-09-29T14:41:41.004Z,49675.19
2023-09-29T14:44:08.325Z,49717.03
2023-09-29T14:46:35.153Z,49689.13
2023-09-29T14:49:02.637Z,49685.13
2023-09-29T14:51:29.898Z,49703.09
2023-09-29T14:53:57.803Z,49679.16
2023-09-29T14:56:24.936Z,49717.03
2023-09-29T14:58:51.974Z,49663.22
2023-09-29T15:01:19.405Z,49675.19
2023-09-29T15:03:46.872Z,49675.19
2023-09-29T15:06:15.367Z,49671.19
2023-09-29T15:08:43.123Z,49697.09
2023-09-29T15:11:11.635Z,49679.16
2023-09-29T15:13:40.940Z,49675.19
2023-09-29T15:16:15.170Z,49687.13
2023-09-29T15:18:50.450Z,49699.09
2023-09-29T15:21:18.554Z,49713.06
2023-09-29T15:23:45.684Z,49695.09
2023-09-29T15:26:12.498Z,49683.16
2023-09-29T15:28:39.245Z,49687.13
2023-09-29T15:31:07.432Z,49671.19
2023-09-29T15:33:34.355Z,49667.19
2023-09-29T15:36:01.836Z,49661.22
2023-09-29T15:38:28.821Z,49719.03
2023-09-29T15:40:55.640Z,49691.13
2023-09-29T15:43:23.206Z,49693.13
2023-09-29T15:45:51.071Z,49683.16
2023-09-29T15:48:17.953Z,49651.25
2023-09-29T15:50:45.704Z,49713.06
2023-09-29T15:53:12.592Z,49707.06
2023-09-29T15:55:43.503Z,49651.25
2023-09-29T15:58:11.555Z,49695.09
2023-09-29T16:00:38.586Z,49679.16
2023-09-29T16:03:07.209Z,49645.28
2023-09-29T16:05:34.770Z,49623.34
2023-09-29T16:08:01.656Z,49659.22
2023-09-29T16:10:29.777Z,49655.25
2023-09-29T16:12:57.494Z,49623.34
2023-09-29T16:15:24.518Z,49659.22
2023-09-29T16:17:53.285Z,49647.25
2023-09-29T16:20:20.166Z,49639.28
2023-09-29T16:22:46.906Z,49635.31
2023-09-29T16:25:13.843Z,49647.25
2023-09-29T16:27:40.794Z,49667.19
2023-09-29T16:30:08.603Z,49651.25
2023-09-29T16:32:35.440Z,49631.31
2023-09-29T16:35:02.832Z,49653.25
2023-09-29T16:37:31.089Z,49659.22
2023-09-29T16:39:57.990Z,49675.19
2023-09-29T16:42:24.767Z,49677.16
2023-09-29T16:44:55.458Z,49683.16
2023-09-29T16:47:22.229Z,49677.16
2023-09-29T16:49:49.019Z,49685.13
2023-09-29T16:52:15.920Z,49683.16
2023-09-29T16:54:44.341Z,49687.13
2023-09-29T16:57:11.759Z,49659.22
2023-09-29T16:59:38.740Z,49731.00
2023-09-29T17:02:05.459Z,49681.16
2023-09-29T17:04:32.510Z,49721.03
2023-09-29T17:07:02.588Z,49671.19
2023-09-29T17:09:29.345Z,49746.94
2023-09-29T17:11:56.115Z,49683.16
2023-09-29T17:14:22.823Z,49733.00
2023-09-29T17:16:49.639Z,49713.06
2023-09-29T17:19:17.017Z,49707.06
2023-09-29T17:21:43.742Z,49715.03
2023-09-29T17:24:10.660Z,49699.09
2023-09-29T17:26:37.410Z,49703.09
2023-09-29T17:29:05.226Z,49721.03
2023-09-29T17:31:32.631Z,49752.91
2023-09-29T17:34:00.093Z,49695.09
2023-09-29T17:36:27.208Z,49723.03
2023-09-29T17:38:55.089Z,49683.16
2023-09-29T17:41:21.686Z,49731.00
2023-09-29T17:43:48.879Z,49723.03
2023-09-29T17:46:15.688Z,49705.06
2023-09-29T17:48:44.376Z,49667.19
2023-09-29T17:51:12.828Z,49675.19
2023-09-29T17:53:40.249Z,49734.97
2023-09-29T17:56:08.022Z,49689.13
2023-09-29T17:58:35.146Z,49723.03
2023-09-29T18:01:06.100Z,49695.09
2023-09-29T18:03:33.086Z,49679.16
2023-09-29T18:06:00.381Z,49715.03
2023-09-29T18:08:27.219Z,49689.13
2023-09-29T18:10:54.417Z,49677.16
2023-09-29T18:13:21.181Z,49689.13
2023-09-29T18:15:47.968Z,49721.03
2023-09-29T18:18:15.200Z,49740.97
2023-09-29T18:20:41.974Z,49740.97
2023-09-29T18:23:08.820Z,49717.03
2023-09-29T18:25:35.590Z,49719.03
2023-09-29T18:28:02.264Z,49721.03
2023-09-29T18:30:29.357Z,49685.13
2023-09-29T18:32:56.193Z,49719.03
2023-09-29T18:35:23.022Z,49709.06
2023-09-29T18:37:49.750Z,49715.03
2023-09-29T18:40:16.665Z,49695.09
2023-09-29T18:42:44.361Z,49738.97
2023-09-29T18:45:11.857Z,49727.00
2023-09-29T18:47:38.956Z,49719.03
2023-09-29T18:50:06.214Z,49725.00
2023-09-29T18:52:32.888Z,49707.06
2023-09-29T18:54:59.679Z,49754.91
2023-09-29T18:57:26.467Z,49734.97
2023-09-29T18:59:53.429Z,49719.03
2023-09-29T19:02:20.625Z,49766.88
2023-09-29T19:04:49.706Z,49723.03
2023-09-29T19:07:17.999Z,49731.00
2023-09-29T19:09:45.246Z,49770.88
2023-09-29T19:12:12.675Z,49750.94
2023-09-29T19:14:39.528Z,49742.94
2023-09-29T19:17:06.325Z,49731.00
2023-09-29T19:19:35.118Z,49719.03
2023-09-29T19:22:02.651Z,49723.03
2023-09-29T19:24:29.466Z,49738.97
2023-09-29T19:26:56.922Z,49754.91
2023-09-29T19:29:23.802Z,49675.19
2023-09-29T19:31:50.652Z,49738.97
2023-09-29T19:34:17.660Z,49713.06
2023-09-29T19:36:44.557Z,49733.00
2023-09-29T19:39:11.372Z,49707.06
2023-09-29T19:41:38.229Z,49768.88
2023-09-29T19:44:05.337Z,49731.00
2023-09-29T19:46:36.215Z,49731.00
2023-09-29T19:49:05.107Z,49729.00
2023-09-29T19:51:32.027Z,49742.94
2023-09-29T19:53:59.580Z,49750.94
2023-09-29T19:56:34.050Z,49758.91
2023-09-29T19:59:01.203Z,49766.88
2023-09-29T20:01:27.927Z,49746.94
2023-09-29T20:03:54.886Z,49719.03
2023-09-29T20:06:21.858Z,49744.94
2023-09-29T20:08:51.662Z,49723.03
2023-09-29T20:11:20.764Z,49727.00
2023-09-29T20:13:47.552Z,49734.97
2023-09-29T20:16:17.194Z,49760.91
2023-09-29T20:18:47.153Z,49768.88
2023-09-29T20:21:17.255Z,49738.97
2023-09-29T20:23:44.264Z,49746.94
2023-09-29T20:26:11.143Z,49752.91
2023-09-29T20:28:43.258Z,49758.91
2023-09-29T20:31:10.648Z,49711.06
2023-09-29T20:33:37.445Z,49766.88
2023-09-29T20:36:04.605Z,49776.84
2023-09-29T20:38:31.350Z,49758.91
2023-09-29T20:40:58.179Z,49766.88
2023-09-29T20:43:24.860Z,49746.94
2023-09-29T20:45:51.837Z,49744.94
2023-09-29T20:48:19.092Z,49750.94
2023-09-29T20:50:45.999Z,49770.88
2023-09-29T20:53:13.466Z,49729.00
2023-09-29T20:55:40.312Z,49776.84
2023-09-29T20:58:07.074Z,49750.94
2023-09-29T21:00:34.779Z,49766.88
2023-09-29T21:03:02.108Z,49766.88
2023-09-29T21:05:29.123Z,49715.03
2023-09-29T21:07:55.952Z,49738.97
2023-09-29T21:10:22.805Z,49764.88
2023-09-29T21:12:49.736Z,49742.94
2023-09-29T21:15:16.895Z,49774.84
2023-09-29T21:17:43.995Z,49754.91
2023-09-29T21:20:12.680Z,49733.00
2023-09-29T21:22:42.960Z,49756.91
2023-09-29T21:25:12.490Z,49772.84
2023-09-29T21:27:40.426Z,49734.97
2023-09-29T21:30:09.827Z,49742.94
2023-09-29T21:32:37.558Z,49744.94
2023-09-29T21:35:05.826Z,49760.91
2023-09-29T21:37:32.803Z,49762.88
2023-09-29T21:39:59.684Z,49768.88
2023-09-29T21:42:26.576Z,49776.84
2023-09-29T21:44:53.364Z,49782.81
2023-09-29T21:47:21.071Z,49774.84
2023-09-29T21:49:47.939Z,49748.94
2023-09-29T21:52:14.678Z,49766.88
2023-09-29T21:54:42.376Z,49734.97
2023-09-29T21:57:09.180Z,49766.88
2023-09-29T21:59:36.889Z,49766.88
2023-09-29T22:02:03.715Z,49748.94
2023-09-29T22:04:30.761Z,49701.09
2023-09-29T22:06:58.206Z,49750.94
2023-09-29T22:09:24.988Z,49766.88
2023-09-29T22:11:51.772Z,49774.84
2023-09-29T22:14:19.141Z,49754.91
2023-09-29T22:16:46.484Z,49744.94
2023-09-29T22:19:13.646Z,49770.88
2023-09-29T22:21:40.640Z,49744.94
2023-09-29T22:24:07.737Z,49758.91
2023-09-29T22:26:36.574Z,49756.91
2023-09-29T22:29:04.413Z,49733.00
2023-09-29T22:31:31.841Z,49736.97
2023-09-29T22:33:59.261Z,49760.91
2023-09-29T22:36:26.808Z,49752.91
2023-09-29T22:38:54.408Z,49768.88
2023-09-29T22:41:22.152Z,49758.91
2023-09-29T22:43:48.958Z,49754.91
2023-09-29T22:46:15.915Z,49762.88
2023-09-29T22:48:42.988Z,49748.94
2023-09-29T22:51:10.468Z,49746.94
2023-09-29T22:53:38.806Z,49731.00
2023-09-29T22:56:10.923Z,49758.91
2023-09-29T22:58:37.624Z,49758.91
2023-09-29T23:01:04.897Z,49731.00
2023-09-29T23:03:31.867Z,49756.91
2023-09-29T23:05:59.203Z,49770.88
2023-09-29T23:08:25.927Z,49774.84
2023-09-29T23:10:52.961Z,49758.91
2023-09-29T23:13:20.135Z,49762.88
2023-09-29T23:15:47.434Z,49758.91
2023-09-29T23:18:14.536Z,49796.78
2023-09-29T23:20:43.072Z,49736.97
2023-09-29T23:23:10.152Z,49782.81
2023-09-29T23:25:37.092Z,49760.91
2023-09-29T23:28:04.387Z,49774.84
2023-09-29T23:30:32.153Z,49746.94
2023-09-29T23:32:59.953Z,49774.84
2023-09-29T23:35:27.684Z,49750.94
2023-09-29T23:37:54.774Z,49742.94
2023-09-29T23:40:21.664Z,49742.94
2023-09-29T23:42:48.541Z,49731.00
2023-09-29T23:45:15.594Z,49756.91
2023-09-29T23:47:44.394Z,49786.81
2023-09-29T23:50:11.662Z,49782.81
2023-09-29T23:52:39.078Z,49762.88
2023-09-29T23:55:07.021Z,49754.91
2023-09-29T23:57:33.964Z,49750.94
